createdAt,value
2019-02-05T00:05:44.334Z,12.03
2019-02-05T00:15:45.608Z,19.60
2019-02-05T00:25:46.865Z,12.63
2019-02-05T00:35:48.117Z,13.23
2019-02-05T00:45:49.394Z,16.70
2019-02-05T00:55:50.666Z,15.33
2019-02-05T01:05:52.709Z,13.63
2019-02-05T01:15:54.026Z,13.20
2019-02-05T01:25:55.301Z,15.97
2019-02-05T01:35:56.581Z,14.27
2019-02-05T01:45:57.846Z,12.90
2019-02-05T01:55:59.913Z,13.67
2019-02-05T02:06:01.171Z,14.00
2019-02-05T02:16:03.220Z,12.77
2019-02-05T02:26:04.477Z,11.73
2019-02-05T02:36:06.496Z,13.10
2019-02-05T02:46:07.796Z,13.90
2019-02-05T02:56:09.832Z,14.73
2019-02-05T03:06:11.109Z,14.00
2019-02-05T03:16:12.397Z,13.07
2019-02-05T03:26:13.706Z,13.77
2019-02-05T03:36:15.005Z,14.07
2019-02-05T03:46:16.262Z,13.70
2019-02-05T03:56:17.548Z,14.07
2019-02-05T04:06:19.597Z,13.60
2019-02-05T04:16:20.880Z,14.03
2019-02-05T04:26:24.008Z,13.33
2019-02-05T04:36:25.520Z,14.43
2019-02-05T04:46:26.784Z,13.53
2019-02-05T04:56:28.062Z,12.63
2019-02-05T05:06:29.374Z,12.87
2019-02-05T05:16:30.714Z,14.30
2019-02-05T05:26:31.994Z,18.17
2019-02-05T05:36:34.051Z,15.80
2019-02-05T05:46:35.357Z,20.50
2019-02-05T05:56:36.645Z,19.37
2019-02-05T06:06:37.989Z,20.50
2019-02-05T06:16:39.256Z,19.67
2019-02-05T06:26:40.642Z,21.47
2019-02-05T06:36:42.033Z,24.27
2019-02-05T06:46:43.377Z,22.67
2019-02-05T06:56:44.741Z,22.03
2019-02-05T07:06:46.038Z,18.47
2019-02-05T07:16:47.320Z,18.90
2019-02-05T07:26:48.665Z,19.77
2019-02-05T07:36:49.931Z,21.00
2019-02-05T07:46:51.212Z,22.70
2019-02-05T07:56:52.481Z,20.67
2019-02-05T08:06:54.508Z,18.97
2019-02-05T08:16:55.805Z,19.48
2019-02-05T08:26:57.081Z,15.07
2019-02-05T08:36:59.120Z,19.10
2019-02-05T08:47:00.426Z,20.97
2019-02-05T08:57:01.701Z,16.47
2019-02-05T09:07:02.970Z,13.73
2019-02-05T09:17:05.018Z,16.50
2019-02-05T09:27:06.280Z,16.60
2019-02-05T09:37:08.297Z,16.17
2019-02-05T09:47:10.318Z,15.40
2019-02-05T09:57:12.343Z,14.77
2019-02-05T10:07:13.618Z,17.50
2019-02-05T10:17:15.653Z,15.77
2019-02-05T10:27:16.938Z,18.50
2019-02-05T10:37:18.209Z,13.87
2019-02-05T10:47:19.480Z,15.67
2019-02-05T10:57:20.755Z,16.90
2019-02-05T11:07:22.040Z,14.90
2019-02-05T11:17:23.296Z,16.20
2019-02-05T11:27:24.536Z,14.47
2019-02-05T11:37:25.836Z,15.90
2019-02-05T11:47:27.105Z,21.37
2019-02-05T11:57:28.380Z,21.17
2019-02-05T12:07:29.668Z,20.33
2019-02-05T12:17:30.953Z,18.27
2019-02-05T12:27:32.225Z,19.30
2019-02-05T12:37:33.524Z,17.07
2019-02-05T12:47:34.805Z,18.70
2019-02-05T12:57:36.086Z,20.47
2019-02-05T13:27:51.965Z,23.17
2019-02-05T13:58:10.680Z,17.17
2019-02-05T14:08:12.045Z,21.70
2019-02-05T14:18:13.321Z,17.77
2019-02-05T14:28:14.593Z,17.43
2019-02-05T14:38:21.849Z,17.60
2019-02-05T14:48:25.062Z,18.57
2019-02-05T14:58:27.104Z,20.50
2019-02-05T15:08:30.089Z,18.83
2019-02-05T15:18:33.059Z,16.20
2019-02-05T15:28:35.029Z,19.20
2019-02-05T15:38:37.235Z,19.27
2019-02-05T15:48:39.160Z,24.03
2019-02-05T15:58:41.271Z,18.37
2019-02-05T16:18:55.838Z,21.70
2019-02-05T16:28:58.600Z,23.97
2019-02-05T16:39:00.594Z,30.97
2019-02-05T16:49:03.631Z,21.10
2019-02-05T16:59:05.663Z,23.60
2019-02-05T17:09:07.658Z,23.43
2019-02-05T17:19:09.189Z,21.57
2019-02-05T17:29:10.478Z,25.80
2019-02-05T17:49:19.477Z,26.73
2019-02-05T17:59:20.729Z,33.60
2019-02-05T18:19:29.113Z,29.03
2019-02-05T18:29:30.394Z,27.50
2019-02-05T18:39:31.686Z,26.87
2019-02-05T18:49:33.590Z,30.90
2019-02-05T18:59:34.888Z,32.33
2019-02-05T19:09:36.176Z,31.10
2019-02-05T19:19:37.634Z,35.13
2019-02-05T19:29:38.902Z,27.13
2019-02-05T19:39:40.204Z,32.30
2019-02-05T19:49:41.557Z,42.10
2019-02-05T19:59:42.985Z,35.30
2019-02-05T20:09:44.439Z,38.30
2019-02-05T20:19:45.821Z,41.47
2019-02-05T20:29:47.101Z,38.40
2019-02-05T20:39:48.441Z,35.07
2019-02-05T20:49:49.748Z,34.23
2019-02-05T20:59:51.028Z,32.73
2019-02-05T21:09:52.314Z,34.73
2019-02-05T21:19:53.599Z,39.30
2019-02-05T21:29:54.875Z,37.30
2019-02-05T21:40:02.370Z,31.47
2019-02-05T21:49:57.828Z,31.77
2019-02-05T21:59:58.871Z,30.03
2019-02-05T22:10:00.307Z,36.30
2019-02-05T22:20:01.461Z,36.60
2019-02-05T22:30:02.746Z,28.43
2019-02-05T22:40:04.211Z,26.50
2019-02-05T22:50:05.505Z,27.50
2019-02-05T23:00:06.816Z,28.10
2019-02-05T23:10:08.093Z,24.40
2019-02-05T23:20:09.386Z,24.93
2019-02-05T23:30:10.709Z,21.70
2019-02-05T23:40:12.078Z,23.20
2019-02-05T23:50:13.391Z,20.67
